Decoded Metar for OIZI (IRAN SHAHR in IRAN) (IATA:N/A) | Meteo·Mobile Aviation Weather
aviador You're here:

OIZI Decoded Metar

IRAN SHAHR in IRAN
Report Time2019-04-25 21:00:00
UTC Time2019-04-25 21:44:04
Flight Rules vfr VFR
WindCalm
Visibility9999 m
Phenomena:N/A
Clouds:N/A
Expected CloudBase > 8,800 ft AGL from Temp-Dew spread
CeilingNone
Temp22°C (ISA +11)
Dew Point00°C (23% RH)
AAT20.0°C
QNH1012 hPa
Density Alt3,320 ft
Elevation1,939 ft
Report Wrong Elevation
Raw Report
METAR OIZI 252100Z 00000KT CAVOK 22/M00 Q1012=

Extra information for OIZI:More info

Metar Taf Metar & Taf Last 4 Metars F.Rules Stats Wind Profile Meteogram Temp Stats Airport Information Weather charts Add Link Nearby VenuesMetar ALERT Operation Metar Decoded Social comments